WEATHER DATA

YESTERDAY
Time Temp. Dewp. Hum. Wind dir Wind speed Wind gust Bar. 1h Prec. 24h Prec.
00:03 4.5 3.9 96 53 2.2 5.3 977.6 0.3960 0.1000
00:18 4.4 4 97 47 1.7 5 977.2 0.5950 0.3000
00:34 4.3 3.9 97 31 1.4 3.6 976.7 0.6940 0.5000
00:36 4.3 3.9 97 32 1.7 6.7 976.7 0.6940 0.6000
00:46 4.3 4 98 36 1.4 4.2 976.4 0.8920 0.8000
00:56 4.2 3.9 98 30 1.7 5.6 976.2 0.8920 1.0000
01:06 4.2 4.1 99 42 1.7 4.4 975.9 1.0900 1.2000
01:16 4.2 4.1 99 45 1.7 5 975.6 0.7920 1.3000
01:37 4.1 4 99 46 1.1 4.4 975 0.8910 1.6000
01:46 4.1 4 99 26 1.4 3.6 974.8 0.6930 1.6000
01:57 4.1 4 99 29 1.4 4.2 974.6 0.5940 1.7000
02:07 4.1 4.1 100 48 1.7 4.2 974.4 0.4950 1.8000
02:17 4.1 4.1 100 47 1.7 7.2 974.3 0.3960 1.8000
02:27 4.1 4.1 100 18 1.4 5.6 974.1 0.2970 1.8000
02:37 4.1 4.1 100 25 1.4 5.6 974 0.1980 1.8000
02:47 4.1 4.1 100 46 1.4 4.2 973.7 0.1980 1.8000
02:57 4.1 4.1 100 45 1.4 4.2 973.6 0.0990 1.8000
03:07 4.2 4.2 100 43 1.7 5.6 973.4 0.0000 1.8000
03:18 4.2 4.2 100 25 1.1 4.2 973.3 0.0000 1.8000
03:27 4.2 4.2 100 32 1.1 3.6 973.2 0.0000 1.8000
03:37 4.2 4.2 100 40 1.1 3.1 973 0.0990 1.9000
03:48 4.2 4.2 100 49 1.4 4.2 972.9 0.0990 1.9000
03:58 4.1 4.1 100 55 1.1 3.1 972.8 0.1980 2.0000
04:08 4.1 4.1 100 37 1.1 3.1 972.7 0.1980 2.0000
04:18 4.1 4.1 100 41 1.4 3.1 972.4 0.1980 2.0000
04:28 4.1 4.1 100 33 1.1 3.9 972.2 0.1980 2.0000
04:38 4.1 4.1 100 56 1.7 7.8 971.9 0.0990 2.0000
04:48 4.1 4.1 100 40 1.4 5.3 971.7 0.0990 2.0000
04:59 4.1 4.1 100 53 1.7 5.8 971.6 0.0000 2.0000
05:09 4.1 4.1 100 54 1.4 3.9 971.4 0.0000 2.0000
05:18 4 4 100 54 1.4 4.2 971.4 0.0000 2.0000
05:28 4 4 100 39 1.4 3.6 971.2 0.0000 2.0000
05:39 4 4 100 53 1.4 4.2 971 0.0000 2.0000
05:49 4 4 100 45 1.4 3.6 970.9 0.0000 2.0000
05:59 4 4 100 43 1.4 3.6 970.8 0.0000 2.0000
06:09 4 4 100 53 1.4 5 970.8 0.0000 2.0000
06:19 4 4 100 37 0.8 3.1 970.8 0.0000 2.0000
06:29 4 4 100 31 1.1 2.5 970.7 0.0000 2.0000
06:39 4 4 100 49 1.1 2.5 970.7 0.0000 2.0000
06:50 3.9 3.9 100 37 1.1 3.1 970.8 0.0000 2.0000
07:00 3.9 3.9 100 61 1.4 3.9 970.7 0.0000 2.0000
07:09 3.9 3.9 100 28 0.8 2.2 970.8 0.0000 2.0000
07:20 3.9 3.9 100 51 1.1 2.5 970.8 0.0000 2.0000
07:30 4 4 100 66 1.1 3.1 970.7 0.0000 2.0000
07:40 3.9 3.9 100 49 1.1 3.1 970.8 0.0000 2.0000
07:50 4 4 100 53 1.1 2.2 970.8 0.0000 2.0000
08:00 4 4 100 68 1.7 3.6 970.8 0.0000 2.0000
08:10 4 4 100 36 1.1 2.5 970.9 0.0000 2.0000
08:20 3.9 3.9 100 61 1.1 3.9 970.9 0.0000 2.0000
08:31 3.9 3.9 100 45 1.1 3.1 971 0.0000 2.0000
08:41 3.9 3.9 100 50 1.1 2.8 971 0.0000 2.0000
08:51 3.9 3.9 100 59 1.1 3.6 971.1 0.0000 2.0000
09:11 3.9 3.9 100 45 0.8 2.2 971.4 0.0000 2.0000
09:21 3.8 3.8 100 51 0.8 1.7 971.6 0.0990 2.1000
09:31 3.8 3.8 100 45 0.8 2.2 971.6 0.1980 2.2000
09:41 3.7 3.7 100 58 1.1 4.2 971.7 0.2970 2.3000
09:56 3.7 3.7 100 55 0.8 2.5 972 0.2970 2.3000
10:07 3.7 3.7 100 33 0.8 1.7 972.2 0.3960 2.4000
10:17 3.7 3.7 100 48 0.8 2.2 972.2 0.2970 2.4000
10:27 3.8 3.8 100 55 0.8 2.2 972.4 0.1980 2.4000
10:37 3.8 3.8 100 57 0.8 2.2 972.6 0.0990 2.4000
10:47 3.9 3.9 100 52 1.1 2.2 972.7 0.0990 2.4000
10:57 4 4 100 42 0.8 2.2 972.8 0.0000 2.4000
11:08 4.1 4.1 100 47 0.8 2.2 973 0.0990 2.5000
11:18 4.1 4.1 100 47 0.8 1.7 973.1 0.0990 2.5000
11:27 4.1 4.1 100 33 0.3 1.4 973.3 0.1980 2.6000
11:38 4.1 4.1 100 51 0.8 1.7 973.4 0.1980 2.6000
11:48 4.1 4.1 100 49 0.3 1.4 973.6 0.1980 2.6000
11:58 4.2 4.2 100 23 0.3 0.8 973.7 0.1980 2.7000
12:08 4.2 4.2 100 45 0.3 1.4 973.8 0.1980 2.7000
12:19 4.2 4.2 100 30 0.3 1.1 974 0.2970 2.8000
12:28 4.2 4.2 100 32 0.3 1.1 974.2 0.1980 2.8000
12:38 4.3 4.3 100 0 0.3 1.1 974.3 0.2970 2.9000
12:48 4.3 4.3 100 350 0.3 0.8 974.4 0.2970 3.0000
12:59 4.3 4.3 100 5 0.3 0.8 974.6 0.2970 3.0000
13:09 4.3 4.3 100 350 0.3 0.8 974.8 0.2970 3.0000
13:19 4.4 4.4 100 270 0.3 0.8 975 0.1980 3.0000
13:29 4.4 4.4 100 0 0.8 975.1 0.1980 3.0000
13:39 4.5 4.5 100 0 0.8 975.3 0.0000 3.0000
13:49 4.5 4.5 100 0 0.8 975.6 0.0000 3.0000
13:59 4.6 4.6 100 0 0.8 975.7 0.0000 3.0000
14:10 4.7 4.7 100 270 0.3 1.4 975.9 0.0000 3.0000
14:20 4.7 4.7 100 270 0.3 1.1 976 0.0000 3.0000
14:29 4.8 4.8 100 270 0.3 1.4 976.1 0.0990 3.1000
14:40 4.8 4.8 100 270 0.3 1.1 976.2 0.0990 3.1000
14:50 4.9 4.9 100 270 0.3 1.1 976.5 0.0990 3.1000
15:00 4.9 4.9 100 270 0.3 1.4 976.6 0.0990 3.1000
15:10 4.9 4.9 100 270 0.3 1.1 976.8 0.0990 3.1000
15:21 5 5 100 270 0.3 2.2 976.9 0.0990 3.1000
15:30 5 5 100 285 0.8 1.7 977.1 0.0990 3.2000
15:36 5 5 100 270 0.3 1.4 977.2 0.0990 3.2000
15:46 5 5 100 270 0.3 1.7 977.4 0.0990 3.2000
15:57 5.1 5.1 100 270 0.3 1.1 977.6 0.1980 3.3000
16:06 5.1 5.1 100 287 0.8 2.2 977.9 0.1980 3.3000
16:24 5.2 5.2 100 270 0.3 1.7 978.3 0.1980 3.3000
16:29 5.2 5.2 100 270 0.3 1.1 978.4 0.0990 3.3000
16:39 5.3 5.3 100 270 0.3 1.4 978.5 0.0990 3.3000
16:55 5.4 5.4 100 297 0.8 2.2 978.8 0.0000 3.3000
17:05 5.5 5.5 100 270 0.3 1.1 978.8 0.0000 3.3000
17:15 5.7 5.7 100 270 0.3 1.1 978.8 0.0000 3.3000
17:25 5.7 5.7 100 270 0.3 1.7 979 0.0000 3.3000
17:36 5.9 5.9 100 270 0.3 1.4 979.1 0.0000 3.3000
17:46 6 6 100 270 0.8 2.2 979.2 0.0000 3.3000
17:56 6.1 6.1 100 270 0.3 1.7 979.4 0.1990 3.5000
18:06 6.2 6.2 100 270 0.3 1.7 979.5 0.2980 3.6000
18:17 6.2 6.2 100 270 0.8 2.5 979.5 0.4970 3.8000
18:28 6.2 6.2 100 270 0.8 2.5 979.7 0.4970 3.8000
18:48 6.3 6.3 100 270 0.3 1.7 979.8 0.4970 3.8000
18:59 6.4 6.4 100 270 0.8 2.2 980 0.1990 3.8000
19:08 6.4 6.4 100 270 0.8 2.2 980 0.2980 3.9000
19:18 6.5 6.5 100 270 1.1 3.9 980.2 0.2980 4.1000
19:28 6.6 6.6 100 282 0.8 3.6 980.2 0.3970 4.2000
19:39 6.7 6.7 100 270 1.1 3.1 980.2 0.3970 4.2000
19:49 6.7 6.7 100 270 0.8 3.6 980.3 0.3970 4.2000
19:58 6.7 6.7 100 270 0.8 3.1 980.2 0.3970 4.3000
20:09 6.8 6.8 100 289 0.8 2.5 980.2 0.3970 4.3000
20:19 6.8 6.8 100 270 1.1 2.8 980.1 0.0990 4.3000
20:29 6.8 6.8 100 270 1.1 3.1 980.4 0.0990 4.3000
20:39 6.7 6.6 99 270 0.8 3.6 980.3 0.2970 4.5000
20:50 6.7 6.4 98 291 0.8 2.5 980.2 0.2970 4.5000
20:59 6.6 6.3 98 270 0.8 2.2 980.2 0.2970 4.6000
21:09 6.5 6.2 98 270 0.8 2.2 980.1 0.4960 4.8000
21:20 6.4 6.1 98 270 0.3 1.4 980 0.5950 4.9000
21:30 6.4 6.3 99 270 0.3 1.1 980 0.5950 5.0000
21:40 6.3 6.2 99 270 0.3 1.4 980 0.4960 5.0000
21:50 6.4 6.3 99 284 1.1 2.8 980.1 0.4960 5.0000
22:00 6.4 6.3 99 287 0.8 3.1 979.9 0.1980 5.0000
22:10 6.4 6.3 99 293 0.8 1.7 979.9 0.1980 5.1000
22:20 6.4 6.3 99 284 0.8 3.6 979.8 0.2980 5.3000
22:30 6.4 6.3 99 270 1.1 4.2 980 0.2980 5.3000
22:41 6.4 6.3 99 278 1.1 2.8 979.8 0.3970 5.4000
22:50 6.4 6.1 98 304 0.8 1.7 979.9 0.3970 5.4000
23:00 6.4 6.1 98 282 1.1 3.9 980 0.4960 5.5000
23:11 6.3 6 98 288 0.8 3.1 979.8 0.3970 5.5000
23:16 6.3 6 98 282 0.8 1.7 979.7 0.1980 5.5000
23:26 6.3 6 98 270 0.8 1.7 979.4 0.1980 5.5000
23:36 6.3 6 98 315 0.8 2.2 979.3 0.0990 5.5000
23:46 6.3 6 98 306 0.8 2.2 979.2 0.0990 5.5000
23:57 6.3 6 98 324 0.3 1.4 979.2 0.0000

DAY STATISTIC

2019-12-13
TEMPERATURE
AVERAGE
4.9
HIGH
6.8
20:09
LOW
3.7
09:41
PRESSURE
AVERAGE
975.5
HIGH
980.4
20:29
LOW
970.7
06:29
DEWPOINT
AVERAGE
4.8
HIGH
6.8
20:09
LOW
3.7
09:41
HUMIDITY
AVERAGE
100
HIGH
100
02:07
LOW
96
00:03
WIND SPEED
AVERAGE
0.9
HIGH
2.2
00:03
WIND GUST
AVERAGE
2.7
HIGH
7.8
04:38
WIND DIRECTION
PREVAILING
NE
50.4%
N
3.6
NE
50.4
E
0.7
SE
0.0
S
0.0
SW
0.0
W
38.1
NW
4.3
PRECIPITATION
RAIN HOUR
1.1
RAIN DAY
5.5
TEMPERATURE (°C)
LOW
3.7
HIGH
6.8
AVERAGE
4.9
PRESSURE (hpa)
LOW
970.7
HIGH
980.4
AVERAGE
975.5
DEVICE